sensor_id;sensor_type;location;lat;lon;timestamp;temperature;humidity
13093;DHT22;6612;49.568;11.000;2023-11-19T00:00:25;9.60;82.40
13093;DHT22;6612;49.568;11.000;2023-11-19T00:02:52;9.60;82.50
13093;DHT22;6612;49.568;11.000;2023-11-19T00:05:19;9.70;82.20
13093;DHT22;6612;49.568;11.000;2023-11-19T00:07:45;9.70;82.10
13093;DHT22;6612;49.568;11.000;2023-11-19T00:10:15;9.70;82.80
13093;DHT22;6612;49.568;11.000;2023-11-19T00:12:46;9.70;82.10
13093;DHT22;6612;49.568;11.000;2023-11-19T00:15:14;9.70;82.20
13093;DHT22;6612;49.568;11.000;2023-11-19T00:17:42;9.70;82.30
13093;DHT22;6612;49.568;11.000;2023-11-19T00:20:11;9.70;82.40
13093;DHT22;6612;49.568;11.000;2023-11-19T00:22:38;9.70;82.50
13093;DHT22;6612;49.568;11.000;2023-11-19T00:25:06;9.70;83.40
13093;DHT22;6612;49.568;11.000;2023-11-19T00:27:35;9.70;82.70
13093;DHT22;6612;49.568;11.000;2023-11-19T00:30:03;9.70;82.40
13093;DHT22;6612;49.568;11.000;2023-11-19T00:32:31;9.70;82.50
13093;DHT22;6612;49.568;11.000;2023-11-19T00:34:58;9.70;83.20
13093;DHT22;6612;49.568;11.000;2023-11-19T00:37:25;9.70;82.50
13093;DHT22;6612;49.568;11.000;2023-11-19T00:39:52;9.70;82.50
13093;DHT22;6612;49.568;11.000;2023-11-19T00:42:18;9.80;82.90
13093;DHT22;6612;49.568;11.000;2023-11-19T00:44:47;9.80;83.10
13093;DHT22;6612;49.568;11.000;2023-11-19T00:47:14;9.80;83.20
13093;DHT22;6612;49.568;11.000;2023-11-19T00:49:41;9.80;83.20
13093;DHT22;6612;49.568;11.000;2023-11-19T00:52:08;9.80;83.10
13093;DHT22;6612;49.568;11.000;2023-11-19T00:54:35;9.80;83.10
13093;DHT22;6612;49.568;11.000;2023-11-19T00:57:01;9.80;83.10
13093;DHT22;6612;49.568;11.000;2023-11-19T00:59:28;9.80;83.20
13093;DHT22;6612;49.568;11.000;2023-11-19T01:01:56;9.80;83.10
13093;DHT22;6612;49.568;11.000;2023-11-19T01:04:24;9.80;83.20
13093;DHT22;6612;49.568;11.000;2023-11-19T01:06:51;9.80;83.20
13093;DHT22;6612;49.568;11.000;2023-11-19T01:09:18;9.80;83.20
13093;DHT22;6612;49.568;11.000;2023-11-19T01:11:45;9.80;83.30
13093;DHT22;6612;49.568;11.000;2023-11-19T01:14:12;9.80;83.20
13093;DHT22;6612;49.568;11.000;2023-11-19T01:16:38;9.80;83.30
13093;DHT22;6612;49.568;11.000;2023-11-19T01:19:07;9.90;83.40
13093;DHT22;6612;49.568;11.000;2023-11-19T01:21:34;9.80;83.50
13093;DHT22;6612;49.568;11.000;2023-11-19T01:24:00;9.80;83.70
13093;DHT22;6612;49.568;11.000;2023-11-19T01:26:29;9.80;83.80
13093;DHT22;6612;49.568;11.000;2023-11-19T01:28:56;9.80;83.80
13093;DHT22;6612;49.568;11.000;2023-11-19T01:31:23;9.80;84.00
13093;DHT22;6612;49.568;11.000;2023-11-19T01:33:50;9.90;84.20
13093;DHT22;6612;49.568;11.000;2023-11-19T01:36:18;9.90;84.40
13093;DHT22;6612;49.568;11.000;2023-11-19T01:38:46;9.90;84.50
13093;DHT22;6612;49.568;11.000;2023-11-19T01:41:13;9.90;84.60
13093;DHT22;6612;49.568;11.000;2023-11-19T01:43:40;9.90;84.70
13093;DHT22;6612;49.568;11.000;2023-11-19T01:46:08;9.90;85.00
13093;DHT22;6612;49.568;11.000;2023-11-19T01:48:40;9.90;85.00
13093;DHT22;6612;49.568;11.000;2023-11-19T01:51:08;10.00;84.10
13093;DHT22;6612;49.568;11.000;2023-11-19T01:53:38;10.00;83.80
13093;DHT22;6612;49.568;11.000;2023-11-19T01:56:08;10.00;83.50
13093;DHT22;6612;49.568;11.000;2023-11-19T01:58:36;10.00;84.20
13093;DHT22;6612;49.568;11.000;2023-11-19T02:01:05;10.00;83.50
13093;DHT22;6612;49.568;11.000;2023-11-19T02:03:33;10.00;83.40
13093;DHT22;6612;49.568;11.000;2023-11-19T02:06:00;10.00;84.10
13093;DHT22;6612;49.568;11.000;2023-11-19T02:08:27;10.00;83.50
13093;DHT22;6612;49.568;11.000;2023-11-19T02:10:55;10.00;83.80
13093;DHT22;6612;49.568;11.000;2023-11-19T02:13:23;10.00;84.20
13093;DHT22;6612;49.568;11.000;2023-11-19T02:15:50;10.00;84.30
13093;DHT22;6612;49.568;11.000;2023-11-19T02:18:18;10.10;84.40
13093;DHT22;6612;49.568;11.000;2023-11-19T02:20:46;10.10;84.60
13093;DHT22;6612;49.568;11.000;2023-11-19T02:23:13;10.10;84.60
13093;DHT22;6612;49.568;11.000;2023-11-19T02:25:40;10.10;84.40
13093;DHT22;6612;49.568;11.000;2023-11-19T02:28:09;10.10;84.60
13093;DHT22;6612;49.568;11.000;2023-11-19T02:30:38;10.10;84.50
13093;DHT22;6612;49.568;11.000;2023-11-19T02:33:04;10.20;84.60
13093;DHT22;6612;49.568;11.000;2023-11-19T02:35:32;10.20;84.60
13093;DHT22;6612;49.568;11.000;2023-11-19T02:37:59;10.20;84.50
13093;DHT22;6612;49.568;11.000;2023-11-19T02:40:27;10.20;84.90
13093;DHT22;6612;49.568;11.000;2023-11-19T02:42:54;10.20;84.40
13093;DHT22;6612;49.568;11.000;2023-11-19T02:45:25;10.20;84.80
13093;DHT22;6612;49.568;11.000;2023-11-19T02:47:53;10.20;85.00
13093;DHT22;6612;49.568;11.000;2023-11-19T02:50:20;10.30;85.00
13093;DHT22;6612;49.568;11.000;2023-11-19T02:52:52;10.30;84.70
13093;DHT22;6612;49.568;11.000;2023-11-19T02:55:19;10.30;84.70
13093;DHT22;6612;49.568;11.000;2023-11-19T02:57:46;10.30;84.80
13093;DHT22;6612;49.568;11.000;2023-11-19T03:00:15;10.30;84.60
13093;DHT22;6612;49.568;11.000;2023-11-19T03:02:44;10.30;84.50
13093;DHT22;6612;49.568;11.000;2023-11-19T03:05:13;10.30;84.40
13093;DHT22;6612;49.568;11.000;2023-11-19T03:07:42;10.30;84.50
13093;DHT22;6612;49.568;11.000;2023-11-19T03:10:10;10.20;84.60
13093;DHT22;6612;49.568;11.000;2023-11-19T03:12:39;10.30;85.30
13093;DHT22;6612;49.568;11.000;2023-11-19T03:15:07;10.30;85.50
13093;DHT22;6612;49.568;11.000;2023-11-19T03:17:35;10.30;85.40
13093;DHT22;6612;49.568;11.000;2023-11-19T03:20:07;10.30;85.10
13093;DHT22;6612;49.568;11.000;2023-11-19T03:22:36;10.30;84.80
13093;DHT22;6612;49.568;11.000;2023-11-19T03:25:04;10.30;84.50
13093;DHT22;6612;49.568;11.000;2023-11-19T03:27:33;10.20;84.60
13093;DHT22;6612;49.568;11.000;2023-11-19T03:30:01;10.20;84.80
13093;DHT22;6612;49.568;11.000;2023-11-19T03:32:30;10.20;85.20
13093;DHT22;6612;49.568;11.000;2023-11-19T03:34:57;10.20;85.70
13093;DHT22;6612;49.568;11.000;2023-11-19T03:37:26;10.30;86.20
13093;DHT22;6612;49.568;11.000;2023-11-19T03:39:53;10.30;85.90
13093;DHT22;6612;49.568;11.000;2023-11-19T03:42:21;10.30;85.50
13093;DHT22;6612;49.568;11.000;2023-11-19T03:44:48;10.30;85.10
13093;DHT22;6612;49.568;11.000;2023-11-19T03:47:16;10.20;84.90
13093;DHT22;6612;49.568;11.000;2023-11-19T03:49:44;10.20;84.90
13093;DHT22;6612;49.568;11.000;2023-11-19T03:52:14;10.20;85.30
13093;DHT22;6612;49.568;11.000;2023-11-19T03:54:42;10.20;85.90
13093;DHT22;6612;49.568;11.000;2023-11-19T03:57:09;10.20;86.20
13093;DHT22;6612;49.568;11.000;2023-11-19T03:59:37;10.20;86.60
13093;DHT22;6612;49.568;11.000;2023-11-19T04:02:04;10.20;86.50
13093;DHT22;6612;49.568;11.000;2023-11-19T04:04:32;10.30;86.40
13093;DHT22;6612;49.568;11.000;2023-11-19T04:07:00;10.30;86.60
13093;DHT22;6612;49.568;11.000;2023-11-19T04:09:28;10.30;86.90
13093;DHT22;6612;49.568;11.000;2023-11-19T04:11:56;10.30;87.10
13093;DHT22;6612;49.568;11.000;2023-11-19T04:14:23;10.30;87.10
13093;DHT22;6612;49.568;11.000;2023-11-19T04:16:50;10.30;87.20
13093;DHT22;6612;49.568;11.000;2023-11-19T04:19:17;10.40;87.30
13093;DHT22;6612;49.568;11.000;2023-11-19T04:21:44;10.40;87.60
13093;DHT22;6612;49.568;11.000;2023-11-19T04:24:12;10.40;87.90
13093;DHT22;6612;49.568;11.000;2023-11-19T04:26:40;10.40;87.90
13093;DHT22;6612;49.568;11.000;2023-11-19T04:29:11;10.50;88.10
13093;DHT22;6612;49.568;11.000;2023-11-19T04:31:38;10.50;88.30
13093;DHT22;6612;49.568;11.000;2023-11-19T04:34:05;10.50;88.30
13093;DHT22;6612;49.568;11.000;2023-11-19T04:36:33;10.60;88.30
13093;DHT22;6612;49.568;11.000;2023-11-19T04:39:00;10.60;88.20
13093;DHT22;6612;49.568;11.000;2023-11-19T04:41:28;10.60;88.10
13093;DHT22;6612;49.568;11.000;2023-11-19T04:43:55;10.60;87.80
13093;DHT22;6612;49.568;11.000;2023-11-19T04:46:23;10.60;87.40
13093;DHT22;6612;49.568;11.000;2023-11-19T04:48:50;10.60;87.50
13093;DHT22;6612;49.568;11.000;2023-11-19T04:51:17;10.70;87.90
13093;DHT22;6612;49.568;11.000;2023-11-19T04:53:44;10.70;88.30
13093;DHT22;6612;49.568;11.000;2023-11-19T04:56:11;10.70;88.00
13093;DHT22;6612;49.568;11.000;2023-11-19T04:58:38;10.70;88.10
13093;DHT22;6612;49.568;11.000;2023-11-19T05:01:05;10.70;87.70
13093;DHT22;6612;49.568;11.000;2023-11-19T05:03:34;10.70;88.00
13093;DHT22;6612;49.568;11.000;2023-11-19T05:06:01;10.70;88.20
13093;DHT22;6612;49.568;11.000;2023-11-19T05:08:28;10.80;88.80
13093;DHT22;6612;49.568;11.000;2023-11-19T05:10:55;10.80;88.70
13093;DHT22;6612;49.568;11.000;2023-11-19T05:13:23;10.80;88.90
13093;DHT22;6612;49.568;11.000;2023-11-19T05:15:50;10.80;88.90
13093;DHT22;6612;49.568;11.000;2023-11-19T05:18:17;10.80;89.00
13093;DHT22;6612;49.568;11.000;2023-11-19T05:20:46;10.90;88.80
13093;DHT22;6612;49.568;11.000;2023-11-19T05:23:13;10.90;88.80
13093;DHT22;6612;49.568;11.000;2023-11-19T05:25:40;10.90;89.10
13093;DHT22;6612;49.568;11.000;2023-11-19T05:28:07;10.90;88.70
13093;DHT22;6612;49.568;11.000;2023-11-19T05:30:33;10.90;88.80
13093;DHT22;6612;49.568;11.000;2023-11-19T05:33:00;11.00;88.90
13093;DHT22;6612;49.568;11.000;2023-11-19T05:35:27;11.00;89.20
13093;DHT22;6612;49.568;11.000;2023-11-19T05:37:55;11.00;89.30
13093;DHT22;6612;49.568;11.000;2023-11-19T05:40:23;11.00;89.30
13093;DHT22;6612;49.568;11.000;2023-11-19T05:42:50;11.00;89.20
13093;DHT22;6612;49.568;11.000;2023-11-19T05:45:17;11.10;89.50
13093;DHT22;6612;49.568;11.000;2023-11-19T05:47:43;11.10;89.50
13093;DHT22;6612;49.568;11.000;2023-11-19T05:50:10;11.10;89.40
13093;DHT22;6612;49.568;11.000;2023-11-19T05:52:38;11.10;89.50
13093;DHT22;6612;49.568;11.000;2023-11-19T05:55:07;11.20;89.80
13093;DHT22;6612;49.568;11.000;2023-11-19T05:57:36;11.20;89.80
13093;DHT22;6612;49.568;11.000;2023-11-19T06:00:04;11.20;90.00
13093;DHT22;6612;49.568;11.000;2023-11-19T06:02:34;11.20;89.90
13093;DHT22;6612;49.568;11.000;2023-11-19T06:05:03;11.20;89.70
13093;DHT22;6612;49.568;11.000;2023-11-19T06:07:31;11.30;89.90
13093;DHT22;6612;49.568;11.000;2023-11-19T06:09:58;11.30;90.00
13093;DHT22;6612;49.568;11.000;2023-11-19T06:12:26;11.30;90.00
13093;DHT22;6612;49.568;11.000;2023-11-19T06:14:54;11.30;90.00
13093;DHT22;6612;49.568;11.000;2023-11-19T06:17:22;11.40;90.20
13093;DHT22;6612;49.568;11.000;2023-11-19T06:19:49;11.40;90.20
13093;DHT22;6612;49.568;11.000;2023-11-19T06:22:16;11.40;90.10
13093;DHT22;6612;49.568;11.000;2023-11-19T06:24:43;11.40;90.10
13093;DHT22;6612;49.568;11.000;2023-11-19T06:27:10;11.40;90.00
13093;DHT22;6612;49.568;11.000;2023-11-19T06:29:38;11.50;90.20
13093;DHT22;6612;49.568;11.000;2023-11-19T06:32:06;11.50;90.20
13093;DHT22;6612;49.568;11.000;2023-11-19T06:34:33;11.50;90.30
13093;DHT22;6612;49.568;11.000;2023-11-19T06:37:00;11.50;90.20
13093;DHT22;6612;49.568;11.000;2023-11-19T06:39:28;11.50;90.30
13093;DHT22;6612;49.568;11.000;2023-11-19T06:41:55;11.60;90.40
13093;DHT22;6612;49.568;11.000;2023-11-19T06:44:22;11.60;90.40
13093;DHT22;6612;49.568;11.000;2023-11-19T06:46:51;11.60;90.50
13093;DHT22;6612;49.568;11.000;2023-11-19T06:49:19;11.60;90.50
13093;DHT22;6612;49.568;11.000;2023-11-19T06:51:46;11.70;90.60
13093;DHT22;6612;49.568;11.000;2023-11-19T06:54:13;11.70;90.70
13093;DHT22;6612;49.568;11.000;2023-11-19T06:56:40;11.70;90.70
13093;DHT22;6612;49.568;11.000;2023-11-19T06:59:07;11.80;90.80
13093;DHT22;6612;49.568;11.000;2023-11-19T07:01:35;11.80;90.80
13093;DHT22;6612;49.568;11.000;2023-11-19T07:04:04;11.80;90.70
13093;DHT22;6612;49.568;11.000;2023-11-19T07:06:34;11.90;90.80
13093;DHT22;6612;49.568;11.000;2023-11-19T07:09:02;11.90;90.80
13093;DHT22;6612;49.568;11.000;2023-11-19T07:11:35;11.90;90.80
13093;DHT22;6612;49.568;11.000;2023-11-19T07:14:03;11.90;90.90
13093;DHT22;6612;49.568;11.000;2023-11-19T07:16:30;12.00;90.90
13093;DHT22;6612;49.568;11.000;2023-11-19T07:18:57;12.00;91.00
13093;DHT22;6612;49.568;11.000;2023-11-19T07:21:26;12.00;91.10
13093;DHT22;6612;49.568;11.000;2023-11-19T07:23:54;12.10;91.20
13093;DHT22;6612;49.568;11.000;2023-11-19T07:26:22;12.10;91.30
13093;DHT22;6612;49.568;11.000;2023-11-19T07:28:49;12.10;91.40
13093;DHT22;6612;49.568;11.000;2023-11-19T07:31:16;12.20;91.50
13093;DHT22;6612;49.568;11.000;2023-11-19T07:33:45;12.20;91.60
13093;DHT22;6612;49.568;11.000;2023-11-19T07:36:12;12.30;91.70
13093;DHT22;6612;49.568;11.000;2023-11-19T07:38:40;12.30;91.80
13093;DHT22;6612;49.568;11.000;2023-11-19T07:41:07;12.40;91.90
13093;DHT22;6612;49.568;11.000;2023-11-19T07:43:38;12.40;92.00
13093;DHT22;6612;49.568;11.000;2023-11-19T07:46:06;12.50;92.10
13093;DHT22;6612;49.568;11.000;2023-11-19T07:48:37;12.50;92.10
13093;DHT22;6612;49.568;11.000;2023-11-19T07:51:04;12.60;92.20
13093;DHT22;6612;49.568;11.000;2023-11-19T07:53:31;12.60;92.20
13093;DHT22;6612;49.568;11.000;2023-11-19T07:56:00;12.70;92.70
13093;DHT22;6612;49.568;11.000;2023-11-19T07:58:27;12.70;92.40
13093;DHT22;6612;49.568;11.000;2023-11-19T08:00:53;12.80;92.50
13093;DHT22;6612;49.568;11.000;2023-11-19T08:03:20;12.80;92.60
13093;DHT22;6612;49.568;11.000;2023-11-19T08:05:48;12.90;92.80
13093;DHT22;6612;49.568;11.000;2023-11-19T08:08:14;13.00;92.90
13093;DHT22;6612;49.568;11.000;2023-11-19T08:10:42;13.00;92.90
13093;DHT22;6612;49.568;11.000;2023-11-19T08:13:11;13.10;92.90
13093;DHT22;6612;49.568;11.000;2023-11-19T08:15:38;13.20;92.80
13093;DHT22;6612;49.568;11.000;2023-11-19T08:18:06;13.20;92.70
13093;DHT22;6612;49.568;11.000;2023-11-19T08:20:33;13.20;92.60
13093;DHT22;6612;49.568;11.000;2023-11-19T08:23:01;13.30;92.60
13093;DHT22;6612;49.568;11.000;2023-11-19T08:25:29;13.30;92.50
13093;DHT22;6612;49.568;11.000;2023-11-19T08:27:56;13.40;92.60
13093;DHT22;6612;49.568;11.000;2023-11-19T08:30:24;13.40;92.70
13093;DHT22;6612;49.568;11.000;2023-11-19T08:32:51;13.40;92.60
13093;DHT22;6612;49.568;11.000;2023-11-19T08:35:18;13.50;92.70
13093;DHT22;6612;49.568;11.000;2023-11-19T08:37:45;13.50;92.80
13093;DHT22;6612;49.568;11.000;2023-11-19T08:40:12;13.50;92.70
13093;DHT22;6612;49.568;11.000;2023-11-19T08:42:40;13.60;92.80
13093;DHT22;6612;49.568;11.000;2023-11-19T08:45:07;13.60;93.10
13093;DHT22;6612;49.568;11.000;2023-11-19T08:47:37;13.60;93.10
13093;DHT22;6612;49.568;11.000;2023-11-19T08:50:06;13.70;92.80
13093;DHT22;6612;49.568;11.000;2023-11-19T08:52:34;13.70;92.80
13093;DHT22;6612;49.568;11.000;2023-11-19T08:55:01;13.80;92.90
13093;DHT22;6612;49.568;11.000;2023-11-19T08:57:28;13.80;92.90
13093;DHT22;6612;49.568;11.000;2023-11-19T08:59:55;13.80;93.00
13093;DHT22;6612;49.568;11.000;2023-11-19T09:02:22;13.90;93.30
13093;DHT22;6612;49.568;11.000;2023-11-19T09:04:50;14.00;93.80
13093;DHT22;6612;49.568;11.000;2023-11-19T09:07:17;14.00;94.20
13093;DHT22;6612;49.568;11.000;2023-11-19T09:09:44;14.10;94.60
13093;DHT22;6612;49.568;11.000;2023-11-19T09:12:11;14.20;94.80
13093;DHT22;6612;49.568;11.000;2023-11-19T09:14:39;14.30;94.80
13093;DHT22;6612;49.568;11.000;2023-11-19T09:17:07;14.40;94.70
13093;DHT22;6612;49.568;11.000;2023-11-19T09:19:35;14.50;94.70
13093;DHT22;6612;49.568;11.000;2023-11-19T09:22:03;14.60;94.70
13093;DHT22;6612;49.568;11.000;2023-11-19T09:24:30;14.60;94.70
13093;DHT22;6612;49.568;11.000;2023-11-19T09:26:58;14.70;94.80
13093;DHT22;6612;49.568;11.000;2023-11-19T09:29:25;14.80;94.90
13093;DHT22;6612;49.568;11.000;2023-11-19T09:31:52;14.90;95.00
13093;DHT22;6612;49.568;11.000;2023-11-19T09:34:19;15.00;95.00
13093;DHT22;6612;49.568;11.000;2023-11-19T09:36:46;15.10;94.80
13093;DHT22;6612;49.568;11.000;2023-11-19T09:39:15;15.10;94.70
13093;DHT22;6612;49.568;11.000;2023-11-19T09:41:43;15.20;94.70
13093;DHT22;6612;49.568;11.000;2023-11-19T09:44:10;15.20;94.70
13093;DHT22;6612;49.568;11.000;2023-11-19T09:46:38;15.30;94.90
13093;DHT22;6612;49.568;11.000;2023-11-19T09:49:08;15.40;95.00
13093;DHT22;6612;49.568;11.000;2023-11-19T09:51:37;15.50;95.20
13093;DHT22;6612;49.568;11.000;2023-11-19T09:54:04;15.50;95.40
13093;DHT22;6612;49.568;11.000;2023-11-19T09:56:33;15.60;95.90
13093;DHT22;6612;49.568;11.000;2023-11-19T09:59:02;15.80;95.90
13093;DHT22;6612;49.568;11.000;2023-11-19T10:01:29;15.90;95.60
13093;DHT22;6612;49.568;11.000;2023-11-19T10:03:57;16.00;95.30
13093;DHT22;6612;49.568;11.000;2023-11-19T10:06:25;16.00;95.10
13093;DHT22;6612;49.568;11.000;2023-11-19T10:08:52;16.10;94.80
13093;DHT22;6612;49.568;11.000;2023-11-19T10:11:21;16.20;94.80
13093;DHT22;6612;49.568;11.000;2023-11-19T10:13:49;16.20;94.90
13093;DHT22;6612;49.568;11.000;2023-11-19T10:16:17;16.30;95.10
13093;DHT22;6612;49.568;11.000;2023-11-19T10:18:45;16.40;95.00
13093;DHT22;6612;49.568;11.000;2023-11-19T10:21:13;16.40;94.80
13093;DHT22;6612;49.568;11.000;2023-11-19T10:23:49;16.50;94.60
13093;DHT22;6612;49.568;11.000;2023-11-19T10:26:17;16.60;94.40
13093;DHT22;6612;49.568;11.000;2023-11-19T10:28:46;16.60;94.40
13093;DHT22;6612;49.568;11.000;2023-11-19T10:31:14;16.70;94.20
13093;DHT22;6612;49.568;11.000;2023-11-19T10:33:41;16.70;93.90
13093;DHT22;6612;49.568;11.000;2023-11-19T10:36:11;16.70;93.60
13093;DHT22;6612;49.568;11.000;2023-11-19T10:38:39;16.70;93.20
13093;DHT22;6612;49.568;11.000;2023-11-19T10:41:06;16.70;93.00
13093;DHT22;6612;49.568;11.000;2023-11-19T10:43:42;16.70;92.80
13093;DHT22;6612;49.568;11.000;2023-11-19T10:46:11;16.70;92.40
13093;DHT22;6612;49.568;11.000;2023-11-19T10:48:40;16.70;92.50
13093;DHT22;6612;49.568;11.000;2023-11-19T10:51:08;16.70;92.40
13093;DHT22;6612;49.568;11.000;2023-11-19T10:53:38;16.70;92.60
13093;DHT22;6612;49.568;11.000;2023-11-19T10:56:10;16.70;92.50
13093;DHT22;6612;49.568;11.000;2023-11-19T10:58:37;16.60;92.30
13093;DHT22;6612;49.568;11.000;2023-11-19T11:01:11;16.60;92.30
13093;DHT22;6612;49.568;11.000;2023-11-19T11:03:41;16.60;92.00
13093;DHT22;6612;49.568;11.000;2023-11-19T11:06:09;16.60;92.00
13093;DHT22;6612;49.568;11.000;2023-11-19T11:08:37;16.60;92.90
13093;DHT22;6612;49.568;11.000;2023-11-19T11:11:06;16.60;93.30
13093;DHT22;6612;49.568;11.000;2023-11-19T11:13:34;16.70;93.90
13093;DHT22;6612;49.568;11.000;2023-11-19T11:16:04;16.80;94.30
13093;DHT22;6612;49.568;11.000;2023-11-19T11:18:33;16.90;94.30
13093;DHT22;6612;49.568;11.000;2023-11-19T11:21:09;17.00;94.50
13093;DHT22;6612;49.568;11.000;2023-11-19T11:24:01;17.10;94.20
13093;DHT22;6612;49.568;11.000;2023-11-19T11:26:57;17.20;93.80
13093;DHT22;6612;49.568;11.000;2023-11-19T11:29:36;17.40;93.80
13093;DHT22;6612;49.568;11.000;2023-11-19T11:32:14;17.50;93.50
13093;DHT22;6612;49.568;11.000;2023-11-19T11:34:57;17.50;93.20
13093;DHT22;6612;49.568;11.000;2023-11-19T11:37:32;17.60;92.40
13093;DHT22;6612;49.568;11.000;2023-11-19T11:40:01;17.70;91.90
13093;DHT22;6612;49.568;11.000;2023-11-19T11:42:36;17.70;91.70
13093;DHT22;6612;49.568;11.000;2023-11-19T11:45:05;17.70;91.50
13093;DHT22;6612;49.568;11.000;2023-11-19T11:50:49;17.70;89.80
13093;DHT22;6612;49.568;11.000;2023-11-19T11:53:21;17.70;90.80
13093;DHT22;6612;49.568;11.000;2023-11-19T11:55:57;17.60;90.30
13093;DHT22;6612;49.568;11.000;2023-11-19T11:58:29;17.60;89.60
13093;DHT22;6612;49.568;11.000;2023-11-19T12:00:58;17.60;90.30
13093;DHT22;6612;49.568;11.000;2023-11-19T12:03:28;17.60;90.00
13093;DHT22;6612;49.568;11.000;2023-11-19T12:05:55;17.50;89.30
13093;DHT22;6612;49.568;11.000;2023-11-19T12:08:28;17.50;90.10
13093;DHT22;6612;49.568;11.000;2023-11-19T12:10:56;17.50;89.40
13093;DHT22;6612;49.568;11.000;2023-11-19T12:13:27;17.50;90.40
13093;DHT22;6612;49.568;11.000;2023-11-19T12:16:08;17.50;90.70
13093;DHT22;6612;49.568;11.000;2023-11-19T12:18:39;17.40;88.00
13093;DHT22;6612;49.568;11.000;2023-11-19T12:21:06;17.40;88.90
13093;DHT22;6612;49.568;11.000;2023-11-19T12:23:46;17.40;89.60
13093;DHT22;6612;49.568;11.000;2023-11-19T12:26:37;17.40;87.70
13093;DHT22;6612;49.568;11.000;2023-11-19T12:29:04;17.30;87.60
13093;DHT22;6612;49.568;11.000;2023-11-19T12:31:32;17.30;90.00
13093;DHT22;6612;49.568;11.000;2023-11-19T12:34:08;17.20;89.20
13093;DHT22;6612;49.568;11.000;2023-11-19T12:36:38;17.10;87.30
13093;DHT22;6612;49.568;11.000;2023-11-19T12:39:07;17.00;87.20
13093;DHT22;6612;49.568;11.000;2023-11-19T12:41:52;16.90;86.80
13093;DHT22;6612;49.568;11.000;2023-11-19T12:44:19;16.90;86.10
13093;DHT22;6612;49.568;11.000;2023-11-19T12:46:47;16.80;88.80
13093;DHT22;6612;49.568;11.000;2023-11-19T12:49:25;16.70;89.70
13093;DHT22;6612;49.568;11.000;2023-11-19T12:51:52;16.60;90.30
13093;DHT22;6612;49.568;11.000;2023-11-19T12:54:31;16.60;89.80
13093;DHT22;6612;49.568;11.000;2023-11-19T12:56:58;16.60;88.60
13093;DHT22;6612;49.568;11.000;2023-11-19T12:59:25;16.50;90.30
13093;DHT22;6612;49.568;11.000;2023-11-19T13:01:56;16.50;90.60
13093;DHT22;6612;49.568;11.000;2023-11-19T13:04:27;16.50;90.30
13093;DHT22;6612;49.568;11.000;2023-11-19T13:06:56;16.50;90.20
13093;DHT22;6612;49.568;11.000;2023-11-19T13:09:25;16.40;89.50
13093;DHT22;6612;49.568;11.000;2023-11-19T13:11:53;16.40;88.40
13093;DHT22;6612;49.568;11.000;2023-11-19T13:14:21;16.30;88.70
13093;DHT22;6612;49.568;11.000;2023-11-19T13:16:47;16.30;89.10
13093;DHT22;6612;49.568;11.000;2023-11-19T13:19:15;16.20;89.20
13093;DHT22;6612;49.568;11.000;2023-11-19T13:21:44;16.20;89.00
13093;DHT22;6612;49.568;11.000;2023-11-19T13:24:12;16.10;88.90
13093;DHT22;6612;49.568;11.000;2023-11-19T13:26:41;16.10;89.00
13093;DHT22;6612;49.568;11.000;2023-11-19T13:29:08;16.00;88.40
13093;DHT22;6612;49.568;11.000;2023-11-19T13:31:36;16.00;88.70
13093;DHT22;6612;49.568;11.000;2023-11-19T13:34:03;15.90;88.40
13093;DHT22;6612;49.568;11.000;2023-11-19T13:36:32;15.90;88.50
13093;DHT22;6612;49.568;11.000;2023-11-19T13:38:59;15.80;88.60
13093;DHT22;6612;49.568;11.000;2023-11-19T13:41:26;15.80;89.00
13093;DHT22;6612;49.568;11.000;2023-11-19T13:43:55;15.70;89.60
13093;DHT22;6612;49.568;11.000;2023-11-19T13:46:21;15.70;90.10
13093;DHT22;6612;49.568;11.000;2023-11-19T13:48:48;15.70;90.70
13093;DHT22;6612;49.568;11.000;2023-11-19T13:51:15;15.70;91.20
13093;DHT22;6612;49.568;11.000;2023-11-19T13:53:43;15.70;91.70
13093;DHT22;6612;49.568;11.000;2023-11-19T13:56:10;15.80;92.10
13093;DHT22;6612;49.568;11.000;2023-11-19T13:58:37;16.00;92.20
13093;DHT22;6612;49.568;11.000;2023-11-19T14:01:06;15.90;92.20
13093;DHT22;6612;49.568;11.000;2023-11-19T14:03:33;16.00;92.20
13093;DHT22;6612;49.568;11.000;2023-11-19T14:06:00;16.00;92.50
13093;DHT22;6612;49.568;11.000;2023-11-19T14:08:28;16.10;92.40
13093;DHT22;6612;49.568;11.000;2023-11-19T14:10:55;16.20;92.20
13093;DHT22;6612;49.568;11.000;2023-11-19T14:13:22;16.20;92.30
13093;DHT22;6612;49.568;11.000;2023-11-19T14:15:49;16.30;92.40
13093;DHT22;6612;49.568;11.000;2023-11-19T14:18:18;16.40;92.60
13093;DHT22;6612;49.568;11.000;2023-11-19T14:20:45;16.50;92.50
13093;DHT22;6612;49.568;11.000;2023-11-19T14:23:12;16.60;92.70
13093;DHT22;6612;49.568;11.000;2023-11-19T14:25:39;16.60;92.60
13093;DHT22;6612;49.568;11.000;2023-11-19T14:28:05;16.70;92.30
13093;DHT22;6612;49.568;11.000;2023-11-19T14:30:33;16.80;91.50
13093;DHT22;6612;49.568;11.000;2023-11-19T14:33:00;16.80;90.50
13093;DHT22;6612;49.568;11.000;2023-11-19T14:35:29;16.80;89.40
13093;DHT22;6612;49.568;11.000;2023-11-19T14:37:58;16.70;88.10
13093;DHT22;6612;49.568;11.000;2023-11-19T14:40:25;16.60;88.20
13093;DHT22;6612;49.568;11.000;2023-11-19T14:42:52;16.60;88.50
13093;DHT22;6612;49.568;11.000;2023-11-19T14:45:19;16.50;88.70
13093;DHT22;6612;49.568;11.000;2023-11-19T14:47:46;16.50;89.00
13093;DHT22;6612;49.568;11.000;2023-11-19T14:50:13;16.40;89.10
13093;DHT22;6612;49.568;11.000;2023-11-19T14:52:41;16.40;89.30
13093;DHT22;6612;49.568;11.000;2023-11-19T14:55:08;16.40;89.10
13093;DHT22;6612;49.568;11.000;2023-11-19T14:57:37;16.30;89.40
13093;DHT22;6612;49.568;11.000;2023-11-19T15:00:06;16.30;89.30
13093;DHT22;6612;49.568;11.000;2023-11-19T15:02:39;16.30;89.00
13093;DHT22;6612;49.568;11.000;2023-11-19T15:05:07;16.30;89.20
13093;DHT22;6612;49.568;11.000;2023-11-19T15:07:35;16.20;88.70
13093;DHT22;6612;49.568;11.000;2023-11-19T15:10:04;16.20;88.20
13093;DHT22;6612;49.568;11.000;2023-11-19T15:12:35;16.20;87.30
13093;DHT22;6612;49.568;11.000;2023-11-19T15:15:06;16.20;87.50
13093;DHT22;6612;49.568;11.000;2023-11-19T15:17:34;16.10;86.90
13093;DHT22;6612;49.568;11.000;2023-11-19T15:20:02;16.00;86.60
13093;DHT22;6612;49.568;11.000;2023-11-19T15:22:29;16.00;86.30
13093;DHT22;6612;49.568;11.000;2023-11-19T15:24:56;15.90;86.20
13093;DHT22;6612;49.568;11.000;2023-11-19T15:27:25;15.90;86.30
13093;DHT22;6612;49.568;11.000;2023-11-19T15:29:52;15.80;85.60
13093;DHT22;6612;49.568;11.000;2023-11-19T15:32:19;15.80;86.10
13093;DHT22;6612;49.568;11.000;2023-11-19T15:34:46;15.70;86.10
13093;DHT22;6612;49.568;11.000;2023-11-19T15:37:14;15.70;86.30
13093;DHT22;6612;49.568;11.000;2023-11-19T15:39:41;15.60;86.40
13093;DHT22;6612;49.568;11.000;2023-11-19T15:42:08;15.60;86.50